createdAt,value
2023-01-10T00:01:29.688Z,17.75
2023-01-10T00:03:57.088Z,25.08
2023-01-10T00:06:24.511Z,17.73
2023-01-10T00:08:51.973Z,14.20
2023-01-10T00:11:37.796Z,20.88
2023-01-10T00:14:05.157Z,28.13
2023-01-10T00:16:32.559Z,16.33
2023-01-10T00:18:59.938Z,21.60
2023-01-10T00:21:28.718Z,24.55
2023-01-10T00:23:58.484Z,22.73
2023-01-10T00:26:25.881Z,23.50
2023-01-10T00:28:53.500Z,15.82
2023-01-10T00:31:20.995Z,22.35
2023-01-10T00:33:48.576Z,21.40
2023-01-10T00:36:16.036Z,18.85
2023-01-10T00:38:43.531Z,29.40
2023-01-10T00:41:30.883Z,17.58
2023-01-10T00:43:58.361Z,20.40
2023-01-10T00:46:27.038Z,24.83
2023-01-10T00:48:54.925Z,20.05
2023-01-10T00:51:22.289Z,20.75
2023-01-10T00:53:49.659Z,27.65
2023-01-10T00:56:17.481Z,14.98
2023-01-10T00:58:45.090Z,22.70
2023-01-10T01:01:12.543Z,28.38
2023-01-10T01:03:40.103Z,14.93
2023-01-10T01:06:08.387Z,12.30
2023-01-10T01:08:35.850Z,18.42
2023-01-10T01:11:03.281Z,21.13
2023-01-10T01:13:30.785Z,22.45
2023-01-10T01:15:59.595Z,20.30
2023-01-10T01:18:27.925Z,11.30
2023-01-10T01:20:57.013Z,17.98
2023-01-10T01:23:24.914Z,17.63
2023-01-10T01:25:53.787Z,22.95
2023-01-10T01:28:24.738Z,29.48
2023-01-10T01:30:52.450Z,16.75
2023-01-10T01:33:20.789Z,25.55
2023-01-10T01:35:49.553Z,27.00
2023-01-10T01:38:17.879Z,27.83
2023-01-10T01:40:45.316Z,27.88
2023-01-10T01:43:27.074Z,19.25
2023-01-10T01:45:55.334Z,18.80
2023-01-10T01:48:34.389Z,22.05
2023-01-10T01:51:13.228Z,28.58
2023-01-10T01:53:46.267Z,18.70
2023-01-10T01:56:45.167Z,14.23
2023-01-10T01:59:17.790Z,29.92
2023-01-10T02:01:49.135Z,17.25
2023-01-10T02:04:33.825Z,17.05
2023-01-10T02:07:01.331Z,17.35
2023-01-10T02:09:46.264Z,22.90
2023-01-10T02:12:15.469Z,18.50
2023-01-10T02:14:44.955Z,19.52
2023-01-10T02:17:12.969Z,15.40
2023-01-10T02:19:48.971Z,12.73
2023-01-10T02:22:16.273Z,31.08
2023-01-10T02:25:13.235Z,21.23
2023-01-10T02:27:43.373Z,14.52
2023-01-10T02:30:22.391Z,13.95
2023-01-10T02:33:05.029Z,22.38
2023-01-10T02:36:05.509Z,16.92
2023-01-10T02:38:37.017Z,20.88
2023-01-10T02:41:23.521Z,20.50
2023-01-10T02:43:57.936Z,21.42
2023-01-10T02:46:29.169Z,17.90
2023-01-10T02:48:56.943Z,16.13
2023-01-10T02:51:30.170Z,20.80
2023-01-10T02:54:19.580Z,22.88
2023-01-10T02:57:14.595Z,10.88
2023-01-10T02:59:56.700Z,16.15
2023-01-10T03:02:57.317Z,15.63
2023-01-10T03:05:42.260Z,17.67
2023-01-10T03:08:15.372Z,26.92
2023-01-10T03:10:56.736Z,20.33
2023-01-10T03:13:48.465Z,18.98
2023-01-10T03:16:19.186Z,22.35
2023-01-10T03:18:54.943Z,16.88
2023-01-10T03:21:24.044Z,17.08
2023-01-10T03:23:55.740Z,23.50
2023-01-10T03:26:49.296Z,19.35
2023-01-10T03:29:24.419Z,19.08
2023-01-10T03:32:00.354Z,15.77
2023-01-10T03:34:28.160Z,26.58
2023-01-10T03:37:05.567Z,15.32
2023-01-10T03:39:53.243Z,23.52
2023-01-10T03:42:29.417Z,12.60
2023-01-10T03:45:06.546Z,18.02
2023-01-10T03:47:45.607Z,12.82
2023-01-10T03:50:22.932Z,24.67
2023-01-10T03:52:50.396Z,16.70
2023-01-10T03:55:24.422Z,20.98
2023-01-10T03:57:51.817Z,15.85
2023-01-10T04:00:19.774Z,15.25
2023-01-10T04:02:47.172Z,22.30
2023-01-10T04:05:14.714Z,19.15
2023-01-10T04:07:42.192Z,13.38
2023-01-10T04:10:10.325Z,15.13
2023-01-10T04:12:37.705Z,14.70
2023-01-10T04:15:05.660Z,17.85
2023-01-10T04:17:33.106Z,21.67
2023-01-10T04:20:00.453Z,14.02
2023-01-10T04:22:28.232Z,22.88
2023-01-10T04:24:55.560Z,24.83
2023-01-10T04:27:23.005Z,21.05
2023-01-10T04:29:50.419Z,22.38
2023-01-10T04:32:17.897Z,17.95
2023-01-10T04:34:45.357Z,17.30
2023-01-10T04:37:12.855Z,14.60
2023-01-10T04:39:40.236Z,14.75
2023-01-10T04:42:07.625Z,19.48
2023-01-10T04:44:34.786Z,16.73
2023-01-10T04:47:02.104Z,22.42
2023-01-10T04:49:29.461Z,19.42
2023-01-10T04:51:57.187Z,19.13
2023-01-10T04:54:24.576Z,14.63
2023-01-10T04:56:52.194Z,12.75
2023-01-10T04:59:20.115Z,21.40
2023-01-10T05:01:47.512Z,11.60
2023-01-10T05:04:15.217Z,20.40
2023-01-10T05:06:42.672Z,12.18
2023-01-10T05:09:10.334Z,14.52
2023-01-10T05:11:37.703Z,10.95
2023-01-10T05:14:05.147Z,15.60
2023-01-10T05:16:32.488Z,14.38
2023-01-10T05:18:59.842Z,15.05
2023-01-10T05:21:27.188Z,13.27
2023-01-10T05:23:54.507Z,19.42
2023-01-10T05:26:23.903Z,15.27
2023-01-10T05:28:51.476Z,14.88
2023-01-10T05:31:20.472Z,18.50
2023-01-10T05:33:51.566Z,18.08
2023-01-10T05:36:19.639Z,21.63
2023-01-10T05:38:47.492Z,20.85
2023-01-10T05:41:15.032Z,23.48
2023-01-10T05:43:42.601Z,25.80
2023-01-10T05:46:10.327Z,15.50
2023-01-10T05:48:37.851Z,14.32
2023-01-10T05:51:05.571Z,13.60
2023-01-10T05:53:33.161Z,23.77
2023-01-10T05:56:02.429Z,17.25
2023-01-10T05:58:30.687Z,23.10
2023-01-10T06:00:58.454Z,25.83
2023-01-10T06:03:26.783Z,17.02
2023-01-10T06:05:55.229Z,18.45
2023-01-10T06:08:23.615Z,28.63
2023-01-10T06:10:51.617Z,23.33
2023-01-10T06:13:19.004Z,13.95
2023-01-10T06:15:46.398Z,13.80
2023-01-10T06:18:14.226Z,19.95
2023-01-10T06:20:43.350Z,22.67
2023-01-10T06:23:11.045Z,23.25
2023-01-10T06:25:41.314Z,18.95
2023-01-10T06:28:10.701Z,24.10
2023-01-10T06:30:38.209Z,14.95
2023-01-10T06:33:07.148Z,12.55
2023-01-10T06:35:35.393Z,23.08
2023-01-10T06:38:03.301Z,24.05
2023-01-10T06:40:30.790Z,12.75
2023-01-10T06:42:59.179Z,15.27
2023-01-10T06:45:26.607Z,28.35
2023-01-10T06:47:53.997Z,26.05
2023-01-10T06:50:22.000Z,22.42
2023-01-10T06:52:59.862Z,19.42
2023-01-10T06:55:28.109Z,19.30
2023-01-10T06:57:57.144Z,16.30
2023-01-10T07:00:25.818Z,19.60
2023-01-10T07:02:54.422Z,21.27
2023-01-10T07:05:48.532Z,18.60
2023-01-10T07:08:16.509Z,18.40
2023-01-10T07:10:44.551Z,17.48
2023-01-10T07:13:12.000Z,16.85
2023-01-10T07:15:39.460Z,18.92
2023-01-10T07:18:06.947Z,16.63
2023-01-10T07:20:34.265Z,26.27
2023-01-10T07:23:01.694Z,17.45
2023-01-10T07:25:30.570Z,24.35
2023-01-10T07:27:58.314Z,22.58
2023-01-10T07:30:26.134Z,23.23
2023-01-10T07:32:55.300Z,20.05
2023-01-10T07:35:23.273Z,13.05
2023-01-10T07:37:50.783Z,14.98
2023-01-10T07:40:18.341Z,19.80
2023-01-10T07:42:45.754Z,20.52
2023-01-10T07:45:13.133Z,9.15
2023-01-10T07:47:40.554Z,26.40
2023-01-10T07:50:08.493Z,22.63
2023-01-10T07:52:35.895Z,27.08
2023-01-10T07:55:03.401Z,25.77
2023-01-10T07:57:30.822Z,19.58
2023-01-10T07:59:58.513Z,19.63
2023-01-10T08:02:27.359Z,19.83
2023-01-10T08:04:54.785Z,20.13
2023-01-10T08:07:22.188Z,27.13
2023-01-10T08:09:50.268Z,25.02
2023-01-10T08:12:17.684Z,26.25
2023-01-10T08:14:45.120Z,21.10
2023-01-10T08:17:12.569Z,25.92
2023-01-10T08:19:39.962Z,22.20
2023-01-10T08:22:07.392Z,18.85
2023-01-10T08:24:35.120Z,23.40
2023-01-10T08:27:03.093Z,23.30
2023-01-10T08:29:30.826Z,19.27
2023-01-10T08:31:58.233Z,15.77
2023-01-10T08:34:26.033Z,22.30
2023-01-10T08:36:54.304Z,20.33
2023-01-10T08:39:22.485Z,16.85
2023-01-10T08:41:49.855Z,16.63
2023-01-10T08:44:17.505Z,16.63
2023-01-10T08:46:45.723Z,12.45
2023-01-10T08:49:13.335Z,18.25
2023-01-10T08:51:40.756Z,12.43
2023-01-10T08:54:08.178Z,12.63
2023-01-10T08:56:37.367Z,13.60
2023-01-10T08:59:04.762Z,10.73
2023-01-10T09:01:32.361Z,12.25
2023-01-10T09:03:59.919Z,15.18
2023-01-10T09:06:27.382Z,14.55
2023-01-10T09:08:54.752Z,13.88
2023-01-10T09:11:22.126Z,11.40
2023-01-10T09:13:50.781Z,11.10
2023-01-10T09:16:18.707Z,13.57
2023-01-10T09:18:46.537Z,6.75
2023-01-10T09:21:13.981Z,10.35
2023-01-10T09:23:43.542Z,12.82
2023-01-10T09:26:11.140Z,10.35
2023-01-10T09:28:38.516Z,11.70
2023-01-10T09:31:08.853Z,10.25
2023-01-10T09:33:46.188Z,9.65
2023-01-10T09:36:15.663Z,14.93
2023-01-10T09:38:44.263Z,6.78
2023-01-10T09:41:28.229Z,5.18
2023-01-10T09:44:25.185Z,8.82
2023-01-10T09:47:26.056Z,5.60
2023-01-10T09:50:02.073Z,4.07
2023-01-10T09:52:37.947Z,4.95
2023-01-10T09:55:27.836Z,3.17
2023-01-10T09:57:57.638Z,4.03
2023-01-10T10:00:40.194Z,1.77
2023-01-10T10:03:21.010Z,1.50
2023-01-10T10:05:50.524Z,1.85
2023-01-10T10:08:20.403Z,2.30
2023-01-10T10:10:53.803Z,2.53
2023-01-10T10:13:47.757Z,1.23
2023-01-10T10:16:34.034Z,3.40
2023-01-10T10:19:05.521Z,1.20
2023-01-10T10:21:45.130Z,2.20
2023-01-10T10:24:34.191Z,1.02
2023-01-10T10:27:24.469Z,1.75
2023-01-10T10:30:16.897Z,1.35
2023-01-10T10:33:02.713Z,2.15
2023-01-10T10:35:32.781Z,4.97
2023-01-10T10:38:14.278Z,2.42
2023-01-10T10:40:44.797Z,1.88
2023-01-10T10:43:24.319Z,1.73
2023-01-10T10:45:57.554Z,2.30
2023-01-10T10:48:29.603Z,2.97
2023-01-10T10:51:03.725Z,3.53
2023-01-10T10:53:33.091Z,1.52
2023-01-10T10:56:02.989Z,3.78
2023-01-10T10:58:32.157Z,1.08
2023-01-10T11:01:01.113Z,2.75
2023-01-10T11:03:40.345Z,5.20
2023-01-10T11:06:10.082Z,1.70
2023-01-10T11:08:42.910Z,2.70
2023-01-10T11:11:25.876Z,1.85
2023-01-10T11:13:57.608Z,1.80
2023-01-10T11:16:37.578Z,2.30
2023-01-10T11:19:17.546Z,2.88
2023-01-10T11:21:57.512Z,2.72
2023-01-10T11:24:53.021Z,3.40
2023-01-10T11:27:25.460Z,1.05
2023-01-10T11:30:00.453Z,2.28
2023-01-10T11:32:37.409Z,1.88
2023-01-10T11:35:16.711Z,3.65
2023-01-10T11:37:44.135Z,2.20
2023-01-10T11:40:27.492Z,1.73
2023-01-10T11:42:59.243Z,3.15
2023-01-10T11:45:33.324Z,4.35
2023-01-10T11:48:19.235Z,1.70
2023-01-10T11:50:50.478Z,0.88
2023-01-10T11:55:57.296Z,1.48
2023-01-10T11:58:34.109Z,2.70
2023-01-10T12:01:01.861Z,1.30
2023-01-10T12:03:40.236Z,2.70
2023-01-10T12:06:16.267Z,1.23
2023-01-10T12:08:47.557Z,3.03
2023-01-10T12:11:17.682Z,2.15
2023-01-10T12:13:54.384Z,2.57
2023-01-10T12:16:28.122Z,1.77
2023-01-10T12:19:01.871Z,2.47
2023-01-10T12:21:43.915Z,1.63
2023-01-10T12:24:35.147Z,2.33
2023-01-10T12:27:04.930Z,5.95
2023-01-10T12:29:36.723Z,1.42
2023-01-10T12:32:06.866Z,6.60
2023-01-10T12:34:44.183Z,1.33
2023-01-10T12:37:19.150Z,1.40
2023-01-10T12:40:12.962Z,4.03
2023-01-10T12:43:10.869Z,5.28
2023-01-10T12:45:52.328Z,2.67
2023-01-10T12:48:30.488Z,5.78
2023-01-10T12:51:02.587Z,3.40
2023-01-10T12:53:38.275Z,6.05
2023-01-10T12:56:10.021Z,7.53
2023-01-10T12:58:43.925Z,7.38
2023-01-10T13:01:15.792Z,9.68
2023-01-10T13:03:44.867Z,5.50
2023-01-10T13:06:22.162Z,14.90
2023-01-10T13:08:50.861Z,5.85
2023-01-10T13:11:24.838Z,10.55
2023-01-10T13:14:01.025Z,8.75
2023-01-10T13:16:48.735Z,11.40
2023-01-10T13:19:19.874Z,16.75
2023-01-10T13:21:47.770Z,15.68
2023-01-10T13:24:15.068Z,23.95
2023-01-10T13:27:03.120Z,18.50
2023-01-10T13:29:38.632Z,30.75
2023-01-10T13:32:34.224Z,25.63
2023-01-10T13:35:17.214Z,41.50
2023-01-10T13:37:52.068Z,35.90
2023-01-10T13:40:28.343Z,37.85
2023-01-10T13:43:33.516Z,34.42
2023-01-10T13:46:19.108Z,33.85
2023-01-10T13:48:49.600Z,37.20
2023-01-10T13:51:22.357Z,52.05
2023-01-10T13:53:51.887Z,44.17
2023-01-10T13:56:42.092Z,36.15
2023-01-10T13:59:46.122Z,35.22
2023-01-10T14:02:30.068Z,51.58
2023-01-10T14:05:06.428Z,53.90
2023-01-10T14:07:44.885Z,49.90
2023-01-10T14:10:26.057Z,35.78
2023-01-10T14:13:15.986Z,49.35
2023-01-10T14:15:46.150Z,46.13
2023-01-10T14:18:22.242Z,37.72
2023-01-10T14:21:07.978Z,45.08
2023-01-10T14:23:44.592Z,40.00
2023-01-10T14:26:29.304Z,59.33
2023-01-10T14:28:57.092Z,49.80
2023-01-10T14:31:26.215Z,35.72
2023-01-10T14:33:54.416Z,38.45
2023-01-10T14:36:31.485Z,56.10
2023-01-10T14:39:05.453Z,49.10
2023-01-10T14:41:41.106Z,41.75
2023-01-10T14:44:13.800Z,42.90
2023-01-10T14:46:53.715Z,36.47
2023-01-10T14:49:51.319Z,36.25
2023-01-10T14:52:24.172Z,37.80
2023-01-10T14:55:16.771Z,37.53
2023-01-10T14:58:01.370Z,41.38
2023-01-10T15:00:31.351Z,34.40
2023-01-10T15:03:03.287Z,24.80
2023-01-10T15:05:36.507Z,24.65
2023-01-10T15:08:25.203Z,29.20
2023-01-10T15:10:57.141Z,27.38
2023-01-10T15:13:28.252Z,25.90
2023-01-10T15:15:56.866Z,17.52
2023-01-10T15:18:45.616Z,18.38
2023-01-10T15:21:15.512Z,26.17
2023-01-10T15:23:46.402Z,18.88
2023-01-10T15:26:25.485Z,15.90
2023-01-10T15:29:14.599Z,23.15
2023-01-10T15:31:42.889Z,19.75
2023-01-10T15:34:26.665Z,19.73
2023-01-10T15:36:56.875Z,11.40
2023-01-10T15:39:28.341Z,15.00
2023-01-10T15:41:59.008Z,11.50
2023-01-10T15:44:52.283Z,13.43
2023-01-10T15:47:36.119Z,11.73
2023-01-10T15:50:23.985Z,16.95
2023-01-10T15:53:01.114Z,22.40
2023-01-10T15:55:41.038Z,18.33
2023-01-10T15:58:27.147Z,21.35
2023-01-10T16:00:56.331Z,22.35
2023-01-10T16:03:38.466Z,19.60
2023-01-10T16:06:12.459Z,32.35
2023-01-10T16:08:39.969Z,36.85
2023-01-10T16:11:16.704Z,23.08
2023-01-10T16:13:44.075Z,28.42
2023-01-10T16:16:18.764Z,25.65
2023-01-10T16:18:46.269Z,32.00
2023-01-10T16:21:14.427Z,35.42
2023-01-10T16:23:46.593Z,39.05
2023-01-10T16:26:14.891Z,33.75
2023-01-10T16:28:45.104Z,34.47
2023-01-10T16:31:14.599Z,27.83
2023-01-10T16:33:42.248Z,31.33
2023-01-10T16:36:18.164Z,35.83
2023-01-10T16:38:45.670Z,29.05
2023-01-10T16:41:33.032Z,30.00
2023-01-10T16:44:00.839Z,39.30
2023-01-10T16:46:28.795Z,35.05
2023-01-10T16:48:56.369Z,36.13
2023-01-10T16:51:27.964Z,32.75
2023-01-10T16:53:55.956Z,28.73
2023-01-10T16:56:26.230Z,30.88
2023-01-10T16:58:54.804Z,29.77
2023-01-10T17:01:30.717Z,36.67
2023-01-10T17:03:58.809Z,29.30
2023-01-10T17:06:26.345Z,21.85
2023-01-10T17:08:53.910Z,34.65
2023-01-10T17:11:32.270Z,25.65
2023-01-10T17:14:00.215Z,32.78
2023-01-10T17:16:27.682Z,24.88
2023-01-10T17:18:55.072Z,19.33
2023-01-10T17:21:23.147Z,19.40
2023-01-10T17:23:51.019Z,13.45
2023-01-10T17:26:19.638Z,20.05
2023-01-10T17:28:49.597Z,24.90
2023-01-10T17:31:19.665Z,17.43
2023-01-10T17:33:49.071Z,22.63
2023-01-10T17:36:19.123Z,19.52
2023-01-10T17:38:46.840Z,24.52
2023-01-10T17:41:14.287Z,19.92
2023-01-10T17:43:41.764Z,20.48
2023-01-10T17:46:10.963Z,14.13
2023-01-10T17:48:38.590Z,12.48
2023-01-10T17:51:06.361Z,14.27
2023-01-10T17:53:34.103Z,9.02
2023-01-10T17:56:01.846Z,12.65
2023-01-10T17:58:29.658Z,17.27
2023-01-10T18:00:57.305Z,12.13
2023-01-10T18:03:24.757Z,15.23
2023-01-10T18:05:54.188Z,11.13
2023-01-10T18:08:22.276Z,11.68
2023-01-10T18:10:50.464Z,9.77
2023-01-10T18:13:20.096Z,8.18
2023-01-10T18:15:49.392Z,13.48
2023-01-10T18:18:17.140Z,11.63
2023-01-10T18:20:45.377Z,10.02
2023-01-10T18:23:23.312Z,11.85
2023-01-10T18:25:56.939Z,5.65
2023-01-10T18:28:39.626Z,7.18
2023-01-10T18:31:13.880Z,6.32
2023-01-10T18:33:41.730Z,5.65
2023-01-10T18:36:14.712Z,6.40
2023-01-10T18:38:42.746Z,5.32
2023-01-10T18:41:10.156Z,7.05
2023-01-10T18:43:37.611Z,5.05
2023-01-10T18:46:09.322Z,3.42
2023-01-10T18:48:37.225Z,5.18
2023-01-10T18:51:05.072Z,7.28
2023-01-10T18:53:32.807Z,4.78
2023-01-10T18:56:04.446Z,7.97
2023-01-10T18:58:34.622Z,7.40
2023-01-10T19:01:13.709Z,9.07
2023-01-10T19:03:42.260Z,8.32
2023-01-10T19:06:11.839Z,6.50
2023-01-10T19:08:40.404Z,11.55
2023-01-10T19:11:14.786Z,5.18
2023-01-10T19:13:47.320Z,10.68
2023-01-10T19:16:19.248Z,12.23
2023-01-10T19:18:52.758Z,7.15
2023-01-10T19:21:21.094Z,6.78
2023-01-10T19:23:52.649Z,7.78
2023-01-10T19:26:20.687Z,7.25
2023-01-10T19:28:48.414Z,10.70
2023-01-10T19:31:23.776Z,8.30
2023-01-10T19:33:51.804Z,6.68
2023-01-10T19:36:21.340Z,3.78
2023-01-10T19:38:53.240Z,2.55
2023-01-10T19:41:20.649Z,5.20
2023-01-10T19:43:48.059Z,8.98
2023-01-10T19:46:15.486Z,11.27
2023-01-10T19:48:43.027Z,6.22
2023-01-10T19:51:12.919Z,4.88
2023-01-10T19:53:44.408Z,8.10
2023-01-10T19:56:13.767Z,7.57
2023-01-10T19:58:41.139Z,5.68
2023-01-10T20:01:20.972Z,4.63
2023-01-10T20:03:48.726Z,4.82
2023-01-10T20:06:20.735Z,4.05
2023-01-10T20:08:49.287Z,5.32
2023-01-10T20:11:18.131Z,9.07
2023-01-10T20:13:45.772Z,8.23
2023-01-10T20:16:14.693Z,9.98
2023-01-10T20:18:44.004Z,6.35
2023-01-10T20:21:12.806Z,11.07
2023-01-10T20:23:41.626Z,9.25
2023-01-10T20:26:23.382Z,11.13
2023-01-10T20:28:50.870Z,5.43
2023-01-10T20:31:22.815Z,6.93
2023-01-10T20:33:50.551Z,8.45
2023-01-10T20:36:20.822Z,10.55
2023-01-10T20:38:48.983Z,3.25
2023-01-10T20:41:21.885Z,2.97
2023-01-10T20:43:49.968Z,3.53
2023-01-10T20:46:24.527Z,4.82
2023-01-10T20:48:52.707Z,2.60
2023-01-10T20:51:24.451Z,3.00
2023-01-10T20:53:51.871Z,6.05
2023-01-10T20:56:24.732Z,5.47
2023-01-10T20:58:53.066Z,8.75
2023-01-10T21:01:33.749Z,7.93
2023-01-10T21:04:03.781Z,4.07
2023-01-10T21:06:31.397Z,7.78
2023-01-10T21:08:59.059Z,3.33
2023-01-10T21:11:26.521Z,5.68
2023-01-10T21:13:54.036Z,4.85
2023-01-10T21:16:22.590Z,3.47
2023-01-10T21:18:50.753Z,4.28
2023-01-10T21:21:22.512Z,7.63
2023-01-10T21:23:50.217Z,5.25
2023-01-10T21:26:17.670Z,6.22
2023-01-10T21:28:47.408Z,6.47
2023-01-10T21:31:18.170Z,6.40
2023-01-10T21:33:46.127Z,5.65
2023-01-10T21:36:13.915Z,7.95
2023-01-10T21:38:41.759Z,4.32
2023-01-10T21:41:36.595Z,6.28
2023-01-10T21:44:05.005Z,10.32
2023-01-10T21:46:32.973Z,5.13
2023-01-10T21:49:04.456Z,4.97
2023-01-10T21:51:31.905Z,3.85
2023-01-10T21:53:59.406Z,7.88
2023-01-10T21:56:26.847Z,12.13
2023-01-10T21:58:54.282Z,6.15
2023-01-10T22:01:21.935Z,8.52
2023-01-10T22:03:49.695Z,11.15
2023-01-10T22:06:17.185Z,4.32
2023-01-10T22:08:44.810Z,8.63
2023-01-10T22:11:12.276Z,14.20
2023-01-10T22:13:39.779Z,4.82
2023-01-10T22:16:07.666Z,7.43
2023-01-10T22:18:35.145Z,8.45
2023-01-10T22:21:02.675Z,6.80
2023-01-10T22:23:30.782Z,6.75
2023-01-10T22:26:07.387Z,3.67
2023-01-10T22:28:35.055Z,5.20
2023-01-10T22:31:03.734Z,5.57
2023-01-10T22:33:34.772Z,7.93
2023-01-10T22:36:13.164Z,8.93
2023-01-10T22:38:41.733Z,3.50
2023-01-10T22:41:14.334Z,6.00
2023-01-10T22:43:42.203Z,5.00
2023-01-10T22:46:10.090Z,3.80
2023-01-10T22:48:38.204Z,9.52
2023-01-10T22:51:05.961Z,7.18
2023-01-10T22:53:34.112Z,4.57
2023-01-10T22:56:03.494Z,5.25
2023-01-10T22:58:31.457Z,5.38
2023-01-10T23:00:58.929Z,3.63
2023-01-10T23:03:26.575Z,8.23
2023-01-10T23:05:56.283Z,10.00
2023-01-10T23:08:24.619Z,6.78
2023-01-10T23:10:54.024Z,14.23
2023-01-10T23:13:22.701Z,7.32
2023-01-10T23:16:20.109Z,7.07
2023-01-10T23:18:48.948Z,10.27
2023-01-10T23:21:16.977Z,6.28
2023-01-10T23:23:44.289Z,4.18
2023-01-10T23:26:12.935Z,9.43
2023-01-10T23:28:49.940Z,8.32
2023-01-10T23:31:19.677Z,13.93
2023-01-10T23:33:47.787Z,6.25
2023-01-10T23:36:15.844Z,6.78
2023-01-10T23:38:43.304Z,8.23
2023-01-10T23:41:11.088Z,17.33
2023-01-10T23:43:38.751Z,9.95
2023-01-10T23:46:06.807Z,7.38
2023-01-10T23:48:34.770Z,12.75
2023-01-10T23:51:02.517Z,5.97
2023-01-10T23:53:29.881Z,9.57
2023-01-10T23:55:58.143Z,11.73
2023-01-10T23:58:25.741Z,6.72
